sensor_id;sensor_type;location;lat;lon;timestamp;pressure;altitude;pressure_sealevel;temperature;humidity
73566;BME280;61846;52.970;-3.168;2023-05-12T00:01:54;101277.33;;;15.26;45.20
73566;BME280;61846;52.970;-3.168;2023-05-12T00:04:20;101279.22;;;15.33;45.91
73566;BME280;61846;52.970;-3.168;2023-05-12T00:06:45;101280.64;;;15.23;45.42
73566;BME280;61846;52.970;-3.168;2023-05-12T00:09:10;101288.94;;;14.17;47.34
73566;BME280;61846;52.970;-3.168;2023-05-12T00:11:37;101289.99;;;14.49;46.83
73566;BME280;61846;52.970;-3.168;2023-05-12T00:14:02;101293.38;;;14.84;46.43
73566;BME280;61846;52.970;-3.168;2023-05-12T00:16:27;101296.25;;;14.47;47.30
73566;BME280;61846;52.970;-3.168;2023-05-12T00:18:53;101300.32;;;14.65;46.63
73566;BME280;61846;52.970;-3.168;2023-05-12T00:21:19;101301.99;;;14.35;47.40
73566;BME280;61846;52.970;-3.168;2023-05-12T00:23:44;101300.61;;;14.63;47.05
73566;BME280;61846;52.970;-3.168;2023-05-12T00:26:10;101304.19;;;14.50;46.64
73566;BME280;61846;52.970;-3.168;2023-05-12T00:28:35;101305.19;;;14.76;47.08
73566;BME280;61846;52.970;-3.168;2023-05-12T00:31:01;101307.99;;;14.43;46.92
73566;BME280;61846;52.970;-3.168;2023-05-12T00:33:26;101313.36;;;14.85;46.79
73566;BME280;61846;52.970;-3.168;2023-05-12T00:35:51;101315.88;;;14.31;47.49
73566;BME280;61846;52.970;-3.168;2023-05-12T00:38:17;101319.54;;;14.15;47.78
73566;BME280;61846;52.970;-3.168;2023-05-12T00:40:42;101320.79;;;14.89;46.76
73566;BME280;61846;52.970;-3.168;2023-05-12T00:43:08;101323.57;;;14.53;47.78
73566;BME280;61846;52.970;-3.168;2023-05-12T00:45:33;101319.89;;;14.57;46.98
73566;BME280;61846;52.970;-3.168;2023-05-12T00:47:58;101320.71;;;14.54;47.19
73566;BME280;61846;52.970;-3.168;2023-05-12T00:50:24;101322.36;;;14.74;46.75
73566;BME280;61846;52.970;-3.168;2023-05-12T00:52:50;101326.06;;;14.94;46.63
73566;BME280;61846;52.970;-3.168;2023-05-12T00:55:15;101329.32;;;14.74;46.55
73566;BME280;61846;52.970;-3.168;2023-05-12T00:57:42;101334.88;;;15.32;45.68
73566;BME280;61846;52.970;-3.168;2023-05-12T01:00:07;101335.21;;;14.53;46.82
73566;BME280;61846;52.970;-3.168;2023-05-12T01:02:31;101336.71;;;14.55;46.64
73566;BME280;61846;52.970;-3.168;2023-05-12T01:04:57;101339.07;;;14.46;47.27
73566;BME280;61846;52.970;-3.168;2023-05-12T01:07:24;101342.19;;;14.98;45.52
73566;BME280;61846;52.970;-3.168;2023-05-12T01:09:53;101346.55;;;14.95;45.92
73566;BME280;61846;52.970;-3.168;2023-05-12T01:12:13;101348.52;;;14.66;46.23
73566;BME280;61846;52.970;-3.168;2023-05-12T01:14:40;101350.13;;;15.00;45.81
73566;BME280;61846;52.970;-3.168;2023-05-12T01:17:09;101353.35;;;14.92;45.53
73566;BME280;61846;52.970;-3.168;2023-05-12T01:19:38;101357.43;;;14.61;45.60
73566;BME280;61846;52.970;-3.168;2023-05-12T01:21:56;101360.40;;;14.97;46.02
73566;BME280;61846;52.970;-3.168;2023-05-12T01:24:23;101368.92;;;14.48;47.06
73566;BME280;61846;52.970;-3.168;2023-05-12T01:26:46;101367.17;;;14.65;46.78
73566;BME280;61846;52.970;-3.168;2023-05-12T01:29:12;101365.59;;;15.21;45.55
73566;BME280;61846;52.970;-3.168;2023-05-12T01:31:37;101368.43;;;14.86;45.87
73566;BME280;61846;52.970;-3.168;2023-05-12T01:34:03;101365.99;;;14.61;45.83
73566;BME280;61846;52.970;-3.168;2023-05-12T01:36:28;101366.93;;;14.85;45.90
73566;BME280;61846;52.970;-3.168;2023-05-12T01:38:54;101372.00;;;15.07;45.60
73566;BME280;61846;52.970;-3.168;2023-05-12T01:41:20;101369.69;;;14.89;45.70
73566;BME280;61846;52.970;-3.168;2023-05-12T01:43:45;101377.61;;;14.54;46.41
73566;BME280;61846;52.970;-3.168;2023-05-12T01:46:11;101376.70;;;15.02;45.22
73566;BME280;61846;52.970;-3.168;2023-05-12T01:48:36;101376.52;;;14.66;45.30
73566;BME280;61846;52.970;-3.168;2023-05-12T01:51:05;101378.30;;;14.81;45.51
73566;BME280;61846;52.970;-3.168;2023-05-12T01:53:27;101376.35;;;15.24;45.07
73566;BME280;61846;52.970;-3.168;2023-05-12T01:55:52;101377.63;;;14.93;45.01
73566;BME280;61846;52.970;-3.168;2023-05-12T01:58:17;101382.77;;;14.62;45.82
73566;BME280;61846;52.970;-3.168;2023-05-12T02:00:42;101379.45;;;14.60;45.52
73566;BME280;61846;52.970;-3.168;2023-05-12T02:03:08;101387.65;;;14.35;45.78
73566;BME280;61846;52.970;-3.168;2023-05-12T02:05:33;101385.33;;;14.28;45.61
73566;BME280;61846;52.970;-3.168;2023-05-12T02:07:58;101383.67;;;14.85;44.73
73566;BME280;61846;52.970;-3.168;2023-05-12T02:10:24;101392.50;;;14.43;45.60
73566;BME280;61846;52.970;-3.168;2023-05-12T02:12:49;101393.65;;;14.61;45.40
73566;BME280;61846;52.970;-3.168;2023-05-12T02:15:15;101388.25;;;14.96;44.29
73566;BME280;61846;52.970;-3.168;2023-05-12T02:17:41;101390.05;;;14.70;45.25
73566;BME280;61846;52.970;-3.168;2023-05-12T02:20:08;101392.41;;;14.50;45.65
73566;BME280;61846;52.970;-3.168;2023-05-12T02:22:32;101391.16;;;13.94;45.60
73566;BME280;61846;52.970;-3.168;2023-05-12T02:24:57;101394.35;;;14.30;45.63
73566;BME280;61846;52.970;-3.168;2023-05-12T02:27:23;101398.27;;;13.77;46.57
73566;BME280;61846;52.970;-3.168;2023-05-12T02:29:48;101399.56;;;13.72;46.43
73566;BME280;61846;52.970;-3.168;2023-05-12T02:32:13;101403.72;;;14.47;44.88
73566;BME280;61846;52.970;-3.168;2023-05-12T02:34:39;101408.25;;;14.40;45.10
73566;BME280;61846;52.970;-3.168;2023-05-12T02:37:04;101407.35;;;14.69;44.33
73566;BME280;61846;52.970;-3.168;2023-05-12T02:39:31;101413.76;;;14.04;45.70
73566;BME280;61846;52.970;-3.168;2023-05-12T02:41:55;101411.67;;;13.25;47.21
73566;BME280;61846;52.970;-3.168;2023-05-12T02:44:21;101415.61;;;13.42;46.87
73566;BME280;61846;52.970;-3.168;2023-05-12T02:46:47;101417.21;;;13.53;46.49
73566;BME280;61846;52.970;-3.168;2023-05-12T02:49:12;101416.50;;;13.29;47.39
73566;BME280;61846;52.970;-3.168;2023-05-12T02:51:38;101420.72;;;13.93;45.69
73566;BME280;61846;52.970;-3.168;2023-05-12T02:54:04;101424.73;;;14.19;44.98
73566;BME280;61846;52.970;-3.168;2023-05-12T02:56:30;101427.29;;;14.00;45.63
73566;BME280;61846;52.970;-3.168;2023-05-12T02:58:55;101431.49;;;14.17;45.05
73566;BME280;61846;52.970;-3.168;2023-05-12T03:01:20;101426.76;;;13.31;46.67
73566;BME280;61846;52.970;-3.168;2023-05-12T03:03:46;101425.40;;;14.12;46.41
73566;BME280;61846;52.970;-3.168;2023-05-12T03:06:11;101426.68;;;13.92;45.86
73566;BME280;61846;52.970;-3.168;2023-05-12T03:08:37;101433.31;;;13.89;45.82
73566;BME280;61846;52.970;-3.168;2023-05-12T03:11:02;101436.71;;;13.07;47.26
73566;BME280;61846;52.970;-3.168;2023-05-12T03:13:28;101438.97;;;13.76;47.17
73566;BME280;61846;52.970;-3.168;2023-05-12T03:15:53;101440.61;;;13.41;46.90
73566;BME280;61846;52.970;-3.168;2023-05-12T03:18:19;101441.11;;;13.25;47.93
73566;BME280;61846;52.970;-3.168;2023-05-12T03:20:45;101439.68;;;13.35;46.88
73566;BME280;61846;52.970;-3.168;2023-05-12T03:23:10;101438.02;;;14.02;46.72
73566;BME280;61846;52.970;-3.168;2023-05-12T03:25:36;101440.09;;;13.85;46.95
73566;BME280;61846;52.970;-3.168;2023-05-12T03:28:01;101440.81;;;13.99;46.50
73566;BME280;61846;52.970;-3.168;2023-05-12T03:30:26;101446.11;;;13.70;47.31
73566;BME280;61846;52.970;-3.168;2023-05-12T03:32:52;101450.64;;;13.38;47.50
73566;BME280;61846;52.970;-3.168;2023-05-12T03:35:18;101453.86;;;13.78;46.57
73566;BME280;61846;52.970;-3.168;2023-05-12T03:37:43;101452.59;;;14.18;46.53
73566;BME280;61846;52.970;-3.168;2023-05-12T03:40:10;101459.38;;;14.47;46.63
73566;BME280;61846;52.970;-3.168;2023-05-12T03:42:34;101458.72;;;13.45;47.61
73566;BME280;61846;52.970;-3.168;2023-05-12T03:45:00;101461.46;;;12.58;49.72
73566;BME280;61846;52.970;-3.168;2023-05-12T03:47:25;101458.20;;;13.30;48.29
73566;BME280;61846;52.970;-3.168;2023-05-12T03:49:50;101464.36;;;13.99;47.20
73566;BME280;61846;52.970;-3.168;2023-05-12T03:52:16;101469.85;;;13.89;46.95
73566;BME280;61846;52.970;-3.168;2023-05-12T03:54:41;101472.19;;;13.41;47.80
73566;BME280;61846;52.970;-3.168;2023-05-12T03:57:07;101471.24;;;13.23;48.45
73566;BME280;61846;52.970;-3.168;2023-05-12T03:59:33;101473.17;;;13.67;47.75
73566;BME280;61846;52.970;-3.168;2023-05-12T04:01:59;101472.18;;;14.22;47.24
73566;BME280;61846;52.970;-3.168;2023-05-12T04:04:24;101471.98;;;14.65;46.97
73566;BME280;61846;52.970;-3.168;2023-05-12T04:06:49;101476.25;;;14.36;46.96
73566;BME280;61846;52.970;-3.168;2023-05-12T04:09:15;101478.26;;;14.61;47.15
73566;BME280;61846;52.970;-3.168;2023-05-12T04:11:41;101476.18;;;13.30;48.95
73566;BME280;61846;52.970;-3.168;2023-05-12T04:14:06;101478.91;;;14.27;47.50
73566;BME280;61846;52.970;-3.168;2023-05-12T04:16:31;101485.62;;;14.37;47.23
73566;BME280;61846;52.970;-3.168;2023-05-12T04:18:57;101488.20;;;14.38;47.14
73566;BME280;61846;52.970;-3.168;2023-05-12T04:21:23;101488.03;;;14.19;47.68
73566;BME280;61846;52.970;-3.168;2023-05-12T04:23:50;101491.08;;;14.09;47.93
73566;BME280;61846;52.970;-3.168;2023-05-12T04:26:14;101488.22;;;13.76;48.59
73566;BME280;61846;52.970;-3.168;2023-05-12T04:28:39;101494.89;;;14.22;48.27
73566;BME280;61846;52.970;-3.168;2023-05-12T04:31:05;101497.40;;;13.71;49.28
73566;BME280;61846;52.970;-3.168;2023-05-12T04:33:30;101501.05;;;14.25;48.60
73566;BME280;61846;52.970;-3.168;2023-05-12T04:35:56;101510.64;;;14.35;47.59
73566;BME280;61846;52.970;-3.168;2023-05-12T04:38:21;101510.92;;;14.32;48.03
73566;BME280;61846;52.970;-3.168;2023-05-12T04:40:47;101514.24;;;14.37;47.59
73566;BME280;61846;52.970;-3.168;2023-05-12T04:43:12;101515.30;;;14.48;47.30
73566;BME280;61846;52.970;-3.168;2023-05-12T04:45:38;101519.39;;;15.00;46.86
73566;BME280;61846;52.970;-3.168;2023-05-12T04:48:04;101526.33;;;14.42;47.41
73566;BME280;61846;52.970;-3.168;2023-05-12T04:50:30;101532.05;;;15.01;47.19
73566;BME280;61846;52.970;-3.168;2023-05-12T04:52:55;101537.16;;;14.84;47.49
73566;BME280;61846;52.970;-3.168;2023-05-12T04:55:21;101541.01;;;14.82;47.34
73566;BME280;61846;52.970;-3.168;2023-05-12T04:57:46;101546.65;;;14.03;49.16
73566;BME280;61846;52.970;-3.168;2023-05-12T05:00:12;101547.86;;;14.53;48.00
73566;BME280;61846;52.970;-3.168;2023-05-12T05:02:37;101548.32;;;14.68;46.91
73566;BME280;61846;52.970;-3.168;2023-05-12T05:05:03;101553.07;;;14.48;46.36
73566;BME280;61846;52.970;-3.168;2023-05-12T05:07:28;101554.07;;;14.52;47.24
73566;BME280;61846;52.970;-3.168;2023-05-12T05:09:53;101553.18;;;13.64;48.56
73566;BME280;61846;52.970;-3.168;2023-05-12T05:12:19;101555.76;;;14.14;48.46
73566;BME280;61846;52.970;-3.168;2023-05-12T05:14:45;101557.48;;;14.29;48.01
73566;BME280;61846;52.970;-3.168;2023-05-12T05:17:11;101557.10;;;13.50;48.47
73566;BME280;61846;52.970;-3.168;2023-05-12T05:19:36;101563.61;;;14.17;49.15
73566;BME280;61846;52.970;-3.168;2023-05-12T05:22:02;101565.58;;;14.39;48.75
73566;BME280;61846;52.970;-3.168;2023-05-12T05:24:28;101568.06;;;14.85;48.16
73566;BME280;61846;52.970;-3.168;2023-05-12T05:26:53;101568.97;;;14.77;47.77
73566;BME280;61846;52.970;-3.168;2023-05-12T05:29:19;101573.05;;;15.04;47.00
73566;BME280;61846;52.970;-3.168;2023-05-12T05:31:45;101579.51;;;14.53;47.81
73566;BME280;61846;52.970;-3.168;2023-05-12T05:34:10;101583.17;;;15.09;47.73
73566;BME280;61846;52.970;-3.168;2023-05-12T05:36:36;101585.64;;;15.24;47.23
73566;BME280;61846;52.970;-3.168;2023-05-12T05:39:02;101585.46;;;15.40;46.36
73566;BME280;61846;52.970;-3.168;2023-05-12T05:41:27;101588.58;;;14.81;46.58
73566;BME280;61846;52.970;-3.168;2023-05-12T05:43:53;101588.56;;;15.17;45.65
73566;BME280;61846;52.970;-3.168;2023-05-12T05:46:18;101590.41;;;15.24;45.42
73566;BME280;61846;52.970;-3.168;2023-05-12T05:48:44;101591.06;;;15.74;45.90
73566;BME280;61846;52.970;-3.168;2023-05-12T05:51:10;101595.82;;;16.08;45.76
73566;BME280;61846;52.970;-3.168;2023-05-12T05:53:35;101599.76;;;15.63;45.80
73566;BME280;61846;52.970;-3.168;2023-05-12T05:56:00;101603.93;;;15.66;45.78
73566;BME280;61846;52.970;-3.168;2023-05-12T05:58:25;101607.99;;;15.73;46.06
73566;BME280;61846;52.970;-3.168;2023-05-12T06:00:50;101610.15;;;15.11;46.74
73566;BME280;61846;52.970;-3.168;2023-05-12T06:03:16;101608.69;;;14.33;46.95
73566;BME280;61846;52.970;-3.168;2023-05-12T06:05:42;101613.07;;;14.64;47.51
73566;BME280;61846;52.970;-3.168;2023-05-12T06:08:07;101613.86;;;15.31;45.77
73566;BME280;61846;52.970;-3.168;2023-05-12T06:10:33;101617.59;;;15.11;45.38
73566;BME280;61846;52.970;-3.168;2023-05-12T06:12:58;101621.05;;;14.93;45.94
73566;BME280;61846;52.970;-3.168;2023-05-12T06:15:23;101627.10;;;15.16;46.55
73566;BME280;61846;52.970;-3.168;2023-05-12T06:17:49;101630.72;;;14.77;46.11
73566;BME280;61846;52.970;-3.168;2023-05-12T06:20:15;101633.84;;;15.04;45.86
73566;BME280;61846;52.970;-3.168;2023-05-12T06:22:41;101634.17;;;15.47;46.04
73566;BME280;61846;52.970;-3.168;2023-05-12T06:25:07;101635.80;;;14.90;46.10
73566;BME280;61846;52.970;-3.168;2023-05-12T06:27:32;101635.20;;;14.58;47.25
73566;BME280;61846;52.970;-3.168;2023-05-12T06:29:57;101636.16;;;14.67;46.70
73566;BME280;61846;52.970;-3.168;2023-05-12T06:32:22;101637.44;;;15.32;46.45
73566;BME280;61846;52.970;-3.168;2023-05-12T06:34:48;101638.61;;;15.30;45.96
73566;BME280;61846;52.970;-3.168;2023-05-12T06:37:13;101641.47;;;15.34;45.97
73566;BME280;61846;52.970;-3.168;2023-05-12T06:39:39;101645.67;;;15.54;44.63
73566;BME280;61846;52.970;-3.168;2023-05-12T06:42:05;101649.48;;;14.72;46.87
73566;BME280;61846;52.970;-3.168;2023-05-12T06:44:31;101653.44;;;15.91;44.65
73566;BME280;61846;52.970;-3.168;2023-05-12T06:46:55;101657.90;;;15.40;45.27
73566;BME280;61846;52.970;-3.168;2023-05-12T06:49:21;101662.30;;;15.24;45.62
73566;BME280;61846;52.970;-3.168;2023-05-12T06:51:47;101662.11;;;15.44;45.64
73566;BME280;61846;52.970;-3.168;2023-05-12T06:54:12;101664.35;;;14.99;45.51
73566;BME280;61846;52.970;-3.168;2023-05-12T06:56:38;101666.97;;;14.51;47.77
73566;BME280;61846;52.970;-3.168;2023-05-12T06:59:03;101669.03;;;14.50;46.62
73566;BME280;61846;52.970;-3.168;2023-05-12T07:01:30;101670.79;;;15.01;45.67
73566;BME280;61846;52.970;-3.168;2023-05-12T07:03:54;101671.51;;;14.70;45.97
73566;BME280;61846;52.970;-3.168;2023-05-12T07:06:20;101672.51;;;14.83;46.75
73566;BME280;61846;52.970;-3.168;2023-05-12T07:08:46;101672.02;;;14.84;46.15
73566;BME280;61846;52.970;-3.168;2023-05-12T07:11:11;101678.59;;;15.34;45.16
73566;BME280;61846;52.970;-3.168;2023-05-12T07:13:37;101676.06;;;15.30;45.04
73566;BME280;61846;52.970;-3.168;2023-05-12T07:16:02;101680.58;;;15.43;44.94
73566;BME280;61846;52.970;-3.168;2023-05-12T07:18:27;101679.67;;;14.79;46.26
73566;BME280;61846;52.970;-3.168;2023-05-12T07:20:53;101683.76;;;15.29;44.98
73566;BME280;61846;52.970;-3.168;2023-05-12T07:23:19;101685.86;;;14.09;47.17
73566;BME280;61846;52.970;-3.168;2023-05-12T07:25:44;101684.50;;;14.72;46.11
73566;BME280;61846;52.970;-3.168;2023-05-12T07:28:10;101688.10;;;14.46;47.67
73566;BME280;61846;52.970;-3.168;2023-05-12T07:30:35;101688.49;;;14.75;46.98
73566;BME280;61846;52.970;-3.168;2023-05-12T07:33:00;101688.66;;;15.03;46.72
73566;BME280;61846;52.970;-3.168;2023-05-12T07:35:26;101693.30;;;14.66;47.45
73566;BME280;61846;52.970;-3.168;2023-05-12T07:37:52;101695.55;;;14.53;46.68
73566;BME280;61846;52.970;-3.168;2023-05-12T07:40:17;101696.48;;;15.29;45.06
73566;BME280;61846;52.970;-3.168;2023-05-12T07:42:43;101701.04;;;16.01;44.75
73566;BME280;61846;52.970;-3.168;2023-05-12T07:45:09;101701.74;;;14.61;45.59
73566;BME280;61846;52.970;-3.168;2023-05-12T07:47:34;101704.17;;;14.10;47.54
73566;BME280;61846;52.970;-3.168;2023-05-12T07:49:59;101706.56;;;13.94;47.78
73566;BME280;61846;52.970;-3.168;2023-05-12T07:52:24;101708.73;;;14.61;46.24
73566;BME280;61846;52.970;-3.168;2023-05-12T07:54:50;101709.41;;;15.28;45.60
73566;BME280;61846;52.970;-3.168;2023-05-12T07:57:16;101710.52;;;15.76;45.17
73566;BME280;61846;52.970;-3.168;2023-05-12T07:59:42;101715.16;;;15.17;45.80
73566;BME280;61846;52.970;-3.168;2023-05-12T08:02:07;101717.43;;;15.76;44.57
73566;BME280;61846;52.970;-3.168;2023-05-12T08:04:33;101719.10;;;16.15;42.84
73566;BME280;61846;52.970;-3.168;2023-05-12T08:06:58;101723.63;;;16.18;43.48
73566;BME280;61846;52.970;-3.168;2023-05-12T08:09:23;101722.33;;;16.19;43.65
73566;BME280;61846;52.970;-3.168;2023-05-12T08:11:49;101725.24;;;16.05;43.63
73566;BME280;61846;52.970;-3.168;2023-05-12T08:14:14;101723.06;;;16.05;43.40
73566;BME280;61846;52.970;-3.168;2023-05-12T08:16:40;101728.02;;;16.11;43.97
73566;BME280;61846;52.970;-3.168;2023-05-12T08:19:05;101725.61;;;15.51;44.66
73566;BME280;61846;52.970;-3.168;2023-05-12T08:21:31;101731.25;;;15.20;44.52
73566;BME280;61846;52.970;-3.168;2023-05-12T08:23:56;101724.90;;;15.18;44.94
73566;BME280;61846;52.970;-3.168;2023-05-12T08:26:21;101728.59;;;16.13;44.65
73566;BME280;61846;52.970;-3.168;2023-05-12T08:28:47;101722.30;;;16.34;43.63
73566;BME280;61846;52.970;-3.168;2023-05-12T08:31:13;101726.63;;;16.28;43.95
73566;BME280;61846;52.970;-3.168;2023-05-12T08:33:38;101729.81;;;15.76;43.31
73566;BME280;61846;52.970;-3.168;2023-05-12T08:36:04;101730.13;;;16.91;42.22
73566;BME280;61846;52.970;-3.168;2023-05-12T08:38:31;101734.83;;;16.90;42.13
73566;BME280;61846;52.970;-3.168;2023-05-12T08:41:00;101729.65;;;16.46;42.67
73566;BME280;61846;52.970;-3.168;2023-05-12T08:43:23;101729.88;;;16.46;43.10
73566;BME280;61846;52.970;-3.168;2023-05-12T08:45:46;101732.76;;;16.68;43.46
73566;BME280;61846;52.970;-3.168;2023-05-12T08:48:11;101738.29;;;16.68;42.24
73566;BME280;61846;52.970;-3.168;2023-05-12T08:50:37;101736.96;;;16.60;42.88
73566;BME280;61846;52.970;-3.168;2023-05-12T08:53:03;101738.03;;;16.59;42.55
73566;BME280;61846;52.970;-3.168;2023-05-12T08:55:27;101736.93;;;16.92;41.93
73566;BME280;61846;52.970;-3.168;2023-05-12T08:57:53;101735.85;;;16.60;42.51
73566;BME280;61846;52.970;-3.168;2023-05-12T09:00:19;101737.35;;;16.59;42.21
73566;BME280;61846;52.970;-3.168;2023-05-12T09:02:43;101737.54;;;16.55;41.91
73566;BME280;61846;52.970;-3.168;2023-05-12T09:05:09;101741.32;;;16.90;41.80
73566;BME280;61846;52.970;-3.168;2023-05-12T09:07:34;101739.78;;;16.55;42.40
73566;BME280;61846;52.970;-3.168;2023-05-12T09:10:00;101739.78;;;14.94;44.24
73566;BME280;61846;52.970;-3.168;2023-05-12T09:12:30;101740.58;;;16.46;41.95
73566;BME280;61846;52.970;-3.168;2023-05-12T09:14:56;101737.64;;;15.60;42.98
73566;BME280;61846;52.970;-3.168;2023-05-12T09:17:16;101736.06;;;15.84;43.67
73566;BME280;61846;52.970;-3.168;2023-05-12T09:19:42;101737.71;;;15.24;45.06
73566;BME280;61846;52.970;-3.168;2023-05-12T09:22:07;101732.77;;;16.02;42.67
73566;BME280;61846;52.970;-3.168;2023-05-12T09:24:34;101737.12;;;15.94;42.88
73566;BME280;61846;52.970;-3.168;2023-05-12T09:26:57;101740.19;;;16.66;41.81
73566;BME280;61846;52.970;-3.168;2023-05-12T09:29:23;101744.51;;;14.80;44.52
73566;BME280;61846;52.970;-3.168;2023-05-12T09:31:49;101741.14;;;15.92;42.84
73566;BME280;61846;52.970;-3.168;2023-05-12T09:34:15;101742.04;;;14.74;45.18
73566;BME280;61846;52.970;-3.168;2023-05-12T09:36:40;101743.26;;;14.87;45.34
73566;BME280;61846;52.970;-3.168;2023-05-12T09:39:08;101743.21;;;14.02;47.30
73566;BME280;61846;52.970;-3.168;2023-05-12T09:41:34;101743.76;;;15.36;45.22
73566;BME280;61846;52.970;-3.168;2023-05-12T09:43:58;101743.49;;;15.86;44.57
73566;BME280;61846;52.970;-3.168;2023-05-12T09:46:23;101745.83;;;14.92;45.71
73566;BME280;61846;52.970;-3.168;2023-05-12T09:48:48;101745.10;;;15.24;44.66
73566;BME280;61846;52.970;-3.168;2023-05-12T09:51:16;101746.28;;;15.72;44.24
73566;BME280;61846;52.970;-3.168;2023-05-12T09:53:42;101744.95;;;15.61;44.66
73566;BME280;61846;52.970;-3.168;2023-05-12T09:56:04;101742.83;;;16.37;42.94
73566;BME280;61846;52.970;-3.168;2023-05-12T09:58:29;101745.51;;;16.72;42.23
73566;BME280;61846;52.970;-3.168;2023-05-12T10:00:55;101744.16;;;16.97;42.05
73566;BME280;61846;52.970;-3.168;2023-05-12T10:03:19;101734.62;;;17.34;41.42
73566;BME280;61846;52.970;-3.168;2023-05-12T10:05:48;101739.92;;;17.10;40.98
73566;BME280;61846;52.970;-3.168;2023-05-12T10:08:11;101743.54;;;14.55;45.55
73566;BME280;61846;52.970;-3.168;2023-05-12T10:10:36;101738.81;;;16.12;44.04
73566;BME280;61846;52.970;-3.168;2023-05-12T10:13:02;101738.85;;;16.40;43.55
73566;BME280;61846;52.970;-3.168;2023-05-12T10:15:28;101737.70;;;16.01;42.90
73566;BME280;61846;52.970;-3.168;2023-05-12T10:17:53;101738.47;;;13.01;47.76
73566;BME280;61846;52.970;-3.168;2023-05-12T10:20:18;101737.10;;;12.98;47.37
73566;BME280;61846;52.970;-3.168;2023-05-12T10:22:44;101739.54;;;15.33;44.04
73566;BME280;61846;52.970;-3.168;2023-05-12T10:25:09;101738.17;;;16.15;42.49
73566;BME280;61846;52.970;-3.168;2023-05-12T10:27:35;101736.08;;;16.19;42.43
73566;BME280;61846;52.970;-3.168;2023-05-12T10:30:01;101738.26;;;16.32;42.52
73566;BME280;61846;52.970;-3.168;2023-05-12T10:32:26;101736.53;;;16.73;41.56
73566;BME280;61846;52.970;-3.168;2023-05-12T10:34:51;101734.00;;;16.90;42.13
73566;BME280;61846;52.970;-3.168;2023-05-12T10:37:16;101738.42;;;15.23;44.13
73566;BME280;61846;52.970;-3.168;2023-05-12T10:39:49;101742.94;;;15.50;42.83
73566;BME280;61846;52.970;-3.168;2023-05-12T10:42:08;101742.96;;;16.67;41.25
73566;BME280;61846;52.970;-3.168;2023-05-12T10:44:33;101745.83;;;15.48;43.84
73566;BME280;61846;52.970;-3.168;2023-05-12T10:46:59;101744.05;;;14.89;45.59
73566;BME280;61846;52.970;-3.168;2023-05-12T10:49:32;101739.88;;;15.14;44.37
73566;BME280;61846;52.970;-3.168;2023-05-12T10:51:49;101737.22;;;16.01;43.76
73566;BME280;61846;52.970;-3.168;2023-05-12T10:54:19;101735.06;;;15.73;45.34
73566;BME280;61846;52.970;-3.168;2023-05-12T10:56:42;101729.90;;;16.82;41.68
73566;BME280;61846;52.970;-3.168;2023-05-12T10:59:06;101729.10;;;17.74;40.19
73566;BME280;61846;52.970;-3.168;2023-05-12T11:01:31;101728.02;;;17.41;40.96
73566;BME280;61846;52.970;-3.168;2023-05-12T11:03:57;101728.51;;;17.02;41.72
73566;BME280;61846;52.970;-3.168;2023-05-12T11:06:21;101729.30;;;17.31;40.21
73566;BME280;61846;52.970;-3.168;2023-05-12T11:08:46;101724.09;;;17.22;43.76
73566;BME280;61846;52.970;-3.168;2023-05-12T11:11:16;101724.32;;;17.40;40.96
73566;BME280;61846;52.970;-3.168;2023-05-12T11:13:37;101720.57;;;17.66;41.05
73566;BME280;61846;52.970;-3.168;2023-05-12T11:16:03;101719.31;;;18.26;40.46
73566;BME280;61846;52.970;-3.168;2023-05-12T11:18:28;101724.09;;;18.16;39.78
73566;BME280;61846;52.970;-3.168;2023-05-12T11:20:53;101722.55;;;16.97;41.18
73566;BME280;61846;52.970;-3.168;2023-05-12T11:23:24;101722.46;;;18.88;39.01
73566;BME280;61846;52.970;-3.168;2023-05-12T11:25:43;101722.74;;;18.60;36.86
73566;BME280;61846;52.970;-3.168;2023-05-12T11:28:10;101720.15;;;18.35;36.52
73566;BME280;61846;52.970;-3.168;2023-05-12T11:30:34;101717.10;;;18.64;37.66
73566;BME280;61846;52.970;-3.168;2023-05-12T11:33:00;101711.98;;;17.93;38.52
73566;BME280;61846;52.970;-3.168;2023-05-12T11:35:29;101719.95;;;18.09;38.14
73566;BME280;61846;52.970;-3.168;2023-05-12T11:37:50;101724.17;;;19.37;36.90
73566;BME280;61846;52.970;-3.168;2023-05-12T11:40:17;101721.89;;;20.41;33.75
73566;BME280;61846;52.970;-3.168;2023-05-12T11:42:40;101727.62;;;20.38;34.54
73566;BME280;61846;52.970;-3.168;2023-05-12T11:45:07;101729.36;;;19.90;34.42
73566;BME280;61846;52.970;-3.168;2023-05-12T11:47:31;101728.44;;;18.90;36.90
73566;BME280;61846;52.970;-3.168;2023-05-12T11:49:56;101727.25;;;19.09;34.06
73566;BME280;61846;52.970;-3.168;2023-05-12T11:52:23;101729.62;;;19.53;34.56
73566;BME280;61846;52.970;-3.168;2023-05-12T11:54:48;101728.59;;;20.25;33.26
73566;BME280;61846;52.970;-3.168;2023-05-12T11:57:12;101729.23;;;19.97;32.59
73566;BME280;61846;52.970;-3.168;2023-05-12T11:59:38;101731.42;;;20.43;33.31
73566;BME280;61846;52.970;-3.168;2023-05-12T12:02:03;101725.72;;;21.01;32.85
73566;BME280;61846;52.970;-3.168;2023-05-12T12:04:33;101733.18;;;19.87;33.49
73566;BME280;61846;52.970;-3.168;2023-05-12T12:06:53;101733.86;;;19.22;35.11
73566;BME280;61846;52.970;-3.168;2023-05-12T12:11:44;101731.41;;;20.04;32.42
73566;BME280;61846;52.970;-3.168;2023-05-12T12:14:09;101731.44;;;20.49;34.01
73566;BME280;61846;52.970;-3.168;2023-05-12T12:16:35;101728.00;;;19.64;35.13
73566;BME280;61846;52.970;-3.168;2023-05-12T12:19:00;101734.40;;;20.97;35.13
73566;BME280;61846;52.970;-3.168;2023-05-12T12:21:26;101734.43;;;19.96;34.14
73566;BME280;61846;52.970;-3.168;2023-05-12T12:23:51;101732.87;;;19.55;35.20
73566;BME280;61846;52.970;-3.168;2023-05-12T12:26:17;101734.25;;;20.91;33.66
73566;BME280;61846;52.970;-3.168;2023-05-12T12:28:41;101738.13;;;20.58;34.33
73566;BME280;61846;52.970;-3.168;2023-05-12T12:31:06;101741.31;;;20.54;33.12
73566;BME280;61846;52.970;-3.168;2023-05-12T12:33:32;101732.53;;;20.51;34.21